createdAt,value
2019-05-09T00:00:04.050Z,6.20
2019-05-09T00:00:33.736Z,6.18
2019-05-09T00:01:04.026Z,6.20
2019-05-09T00:01:33.719Z,6.20
2019-05-09T00:02:03.774Z,6.17
2019-05-09T00:02:33.826Z,6.20
2019-05-09T00:03:06.089Z,6.17
2019-05-09T00:03:33.724Z,6.16
2019-05-09T00:04:03.775Z,6.17
2019-05-09T00:04:33.737Z,6.17
2019-05-09T00:05:03.840Z,6.17
2019-05-09T00:05:33.717Z,6.17
2019-05-09T00:06:04.563Z,6.14
2019-05-09T00:06:34.042Z,6.14
2019-05-09T00:07:03.774Z,6.16
2019-05-09T00:07:33.841Z,6.14
2019-05-09T00:08:03.781Z,6.14
2019-05-09T00:08:33.717Z,6.14
2019-05-09T00:09:03.921Z,6.13
2019-05-09T00:09:35.128Z,6.12
2019-05-09T00:10:04.185Z,6.12
2019-05-09T00:10:39.101Z,6.12
2019-05-09T00:11:03.868Z,6.12
2019-05-09T00:11:33.743Z,6.07
2019-05-09T00:12:03.924Z,6.09
2019-05-09T00:12:33.729Z,6.07
2019-05-09T00:13:03.777Z,6.10
2019-05-09T00:13:36.075Z,6.06
2019-05-09T00:14:04.539Z,6.05
2019-05-09T00:14:34.267Z,6.09
2019-05-09T00:15:04.558Z,6.07
2019-05-09T00:15:33.715Z,6.03
2019-05-09T00:16:03.845Z,6.06
2019-05-09T00:16:33.715Z,6.03
2019-05-09T00:17:03.921Z,6.02
2019-05-09T00:17:33.883Z,6.03
2019-05-09T00:18:04.062Z,6.00
2019-05-09T00:18:33.766Z,5.99
2019-05-09T00:19:03.784Z,6.00
2019-05-09T00:19:33.715Z,5.99
2019-05-09T00:20:05.162Z,6.00
2019-05-09T00:20:33.717Z,5.99
2019-05-09T00:21:04.181Z,6.02
2019-05-09T00:21:33.726Z,5.97
2019-05-09T00:22:03.915Z,5.97
2019-05-09T00:22:33.721Z,5.97
2019-05-09T00:23:03.781Z,5.96
2019-05-09T00:23:33.718Z,5.96
2019-05-09T00:24:06.134Z,5.96
2019-05-09T00:24:33.721Z,5.95
2019-05-09T00:25:03.778Z,5.97
2019-05-09T00:25:34.021Z,5.97
2019-05-09T00:26:04.223Z,5.95
2019-05-09T00:26:34.025Z,5.96
2019-05-09T00:27:04.023Z,5.95
2019-05-09T00:27:33.730Z,5.92
2019-05-09T00:28:04.199Z,5.92
2019-05-09T00:28:35.875Z,5.92
2019-05-09T00:29:03.927Z,5.90
2019-05-09T00:29:33.732Z,5.90
2019-05-09T00:30:03.965Z,5.90
2019-05-09T00:30:36.213Z,5.89
2019-05-09T00:31:03.783Z,5.89
2019-05-09T00:31:33.889Z,5.90
2019-05-09T00:32:03.785Z,5.88
2019-05-09T00:32:34.137Z,5.89
2019-05-09T00:33:03.887Z,5.90
2019-05-09T00:33:34.448Z,5.90
2019-05-09T00:34:04.240Z,5.92
2019-05-09T00:34:36.500Z,5.89
2019-05-09T00:35:04.049Z,5.89
2019-05-09T00:35:33.930Z,5.90
2019-05-09T00:36:04.388Z,5.88
2019-05-09T00:36:33.751Z,5.90
2019-05-09T00:37:03.787Z,5.89
2019-05-09T00:37:33.719Z,5.90
2019-05-09T00:38:04.369Z,5.93
2019-05-09T00:38:33.719Z,5.88
2019-05-09T00:39:04.130Z,5.89
2019-05-09T00:39:34.134Z,5.88
2019-05-09T00:40:04.072Z,5.86
2019-05-09T00:40:34.204Z,5.86
2019-05-09T00:41:06.160Z,5.88
2019-05-09T00:41:33.719Z,5.88
2019-05-09T00:42:04.441Z,5.89
2019-05-09T00:42:33.739Z,5.88
2019-05-09T00:43:04.123Z,5.86
2019-05-09T00:43:34.293Z,5.88
2019-05-09T00:44:03.794Z,5.86
2019-05-09T00:44:33.906Z,5.85
2019-05-09T00:45:06.078Z,5.86
2019-05-09T00:45:33.717Z,5.85
2019-05-09T00:46:04.421Z,5.88
2019-05-09T00:46:34.094Z,5.88
2019-05-09T00:47:04.273Z,5.82
2019-05-09T00:47:33.728Z,5.84
2019-05-09T00:48:03.779Z,5.82
2019-05-09T00:48:33.858Z,5.80
2019-05-09T00:49:05.016Z,5.82
2019-05-09T00:49:34.174Z,5.80
2019-05-09T00:50:05.151Z,5.79
2019-05-09T00:50:34.111Z,5.85
2019-05-09T00:51:03.791Z,5.82
2019-05-09T00:51:36.076Z,5.84
2019-05-09T00:52:03.784Z,5.85
2019-05-09T00:52:33.978Z,5.80
2019-05-09T00:53:03.785Z,5.82
2019-05-09T00:53:34.049Z,5.82
2019-05-09T00:54:04.224Z,5.84
2019-05-09T00:54:33.728Z,5.86
2019-05-09T00:55:04.024Z,5.84
2019-05-09T00:55:36.095Z,5.84
2019-05-09T00:56:04.291Z,5.86
2019-05-09T00:56:33.739Z,5.85
2019-05-09T00:57:03.878Z,5.84
2019-05-09T00:57:33.735Z,5.84
2019-05-09T00:58:04.253Z,5.88
2019-05-09T00:58:33.732Z,5.88
2019-05-09T00:59:04.368Z,5.88
2019-05-09T00:59:33.729Z,5.88
2019-05-09T01:00:04.056Z,5.86
2019-05-09T01:00:33.737Z,5.88
2019-05-09T01:01:04.449Z,5.89
2019-05-09T01:01:34.248Z,5.89
2019-05-09T01:02:06.185Z,5.88
2019-05-09T01:02:34.081Z,5.88
2019-05-09T01:03:03.789Z,5.86
2019-05-09T01:03:34.047Z,5.88
2019-05-09T01:04:04.428Z,5.88
2019-05-09T01:04:33.727Z,5.89
2019-05-09T01:05:04.293Z,5.90
2019-05-09T01:05:34.206Z,5.86
2019-05-09T01:06:06.166Z,5.89
2019-05-09T01:06:34.096Z,5.90
2019-05-09T01:07:03.796Z,5.90
2019-05-09T01:07:33.938Z,5.86
2019-05-09T01:08:04.255Z,5.89
2019-05-09T01:08:33.846Z,5.90
2019-05-09T01:09:04.316Z,5.92
2019-05-09T01:09:33.755Z,5.90
2019-05-09T01:10:04.324Z,5.95
2019-05-09T01:10:34.290Z,5.95
2019-05-09T01:11:11.251Z,5.95
2019-05-09T01:11:33.739Z,5.93
2019-05-09T01:12:04.260Z,5.93
2019-05-09T01:12:36.108Z,5.92
2019-05-09T01:13:03.846Z,5.90
2019-05-09T01:13:34.214Z,5.90
2019-05-09T01:14:03.902Z,5.89
2019-05-09T01:14:34.000Z,5.89
2019-05-09T01:15:03.799Z,5.86
2019-05-09T01:15:33.848Z,5.84
2019-05-09T01:16:04.621Z,5.82
2019-05-09T01:16:36.112Z,5.84
2019-05-09T01:17:04.298Z,5.82
2019-05-09T01:17:33.730Z,5.80
2019-05-09T01:18:04.523Z,5.78
2019-05-09T01:18:33.733Z,5.80
2019-05-09T01:19:03.877Z,5.78
2019-05-09T01:19:33.980Z,5.75
2019-05-09T01:20:03.802Z,5.75
2019-05-09T01:20:33.726Z,5.78
2019-05-09T01:21:04.147Z,5.78
2019-05-09T01:21:33.730Z,5.73
2019-05-09T01:22:03.945Z,5.76
2019-05-09T01:22:33.737Z,5.72
2019-05-09T01:23:06.219Z,5.75
2019-05-09T01:23:34.441Z,5.75
2019-05-09T01:24:03.790Z,5.75
2019-05-09T01:24:33.977Z,5.75
2019-05-09T01:25:04.248Z,5.72
2019-05-09T01:25:33.759Z,5.70
2019-05-09T01:26:04.105Z,5.73
2019-05-09T01:26:33.731Z,5.72
2019-05-09T01:27:06.122Z,5.75
2019-05-09T01:27:34.061Z,5.73
2019-05-09T01:28:03.798Z,5.76
2019-05-09T01:28:34.155Z,5.73
2019-05-09T01:29:04.455Z,5.75
2019-05-09T01:29:33.931Z,5.73
2019-05-09T01:30:04.488Z,5.73
2019-05-09T01:30:33.886Z,5.73
2019-05-09T01:31:04.281Z,5.72
2019-05-09T01:31:33.738Z,5.73
2019-05-09T01:32:03.787Z,5.70
2019-05-09T01:32:34.319Z,5.72
2019-05-09T01:33:03.851Z,5.70
2019-05-09T01:33:36.293Z,5.70
2019-05-09T01:34:04.169Z,5.69
2019-05-09T01:34:33.798Z,5.72
2019-05-09T01:35:04.072Z,5.72
2019-05-09T01:35:34.043Z,5.70
2019-05-09T01:36:03.957Z,5.70
2019-05-09T01:36:33.935Z,5.69
2019-05-09T01:37:03.793Z,5.70
2019-05-09T01:37:36.170Z,5.69
2019-05-09T01:38:03.815Z,5.69
2019-05-09T01:38:34.066Z,5.68
2019-05-09T01:39:03.990Z,5.70
2019-05-09T01:39:33.794Z,5.65
2019-05-09T01:40:04.311Z,5.65
2019-05-09T01:40:33.737Z,5.63
2019-05-09T01:41:04.101Z,5.62
2019-05-09T01:41:34.138Z,5.63
2019-05-09T01:42:03.796Z,5.61
2019-05-09T01:42:33.841Z,5.58
2019-05-09T01:43:04.451Z,5.59
2019-05-09T01:43:33.969Z,5.59
2019-05-09T01:44:06.170Z,5.61
2019-05-09T01:44:33.756Z,5.61
2019-05-09T01:45:03.858Z,5.59
2019-05-09T01:45:34.261Z,5.59
2019-05-09T01:46:03.994Z,5.61
2019-05-09T01:46:34.094Z,5.63
2019-05-09T01:47:04.046Z,5.62
2019-05-09T01:47:34.190Z,5.63
2019-05-09T01:48:06.167Z,5.61
2019-05-09T01:48:34.180Z,5.61
2019-05-09T01:49:03.801Z,5.62
2019-05-09T01:49:34.261Z,5.59
2019-05-09T01:50:04.018Z,5.61
2019-05-09T01:50:34.080Z,5.61
2019-05-09T01:51:03.799Z,5.61
2019-05-09T01:51:33.821Z,5.59
2019-05-09T01:52:03.837Z,5.55
2019-05-09T01:52:33.825Z,5.55
2019-05-09T01:53:04.136Z,5.54
2019-05-09T01:53:33.911Z,5.54
2019-05-09T01:54:03.874Z,5.54
2019-05-09T01:54:36.302Z,5.55
2019-05-09T01:55:03.826Z,5.52
2019-05-09T01:55:34.036Z,5.52
2019-05-09T01:56:03.975Z,5.52
2019-05-09T01:56:33.947Z,5.54
2019-05-09T01:57:03.799Z,5.55
2019-05-09T01:57:33.820Z,5.54
2019-05-09T01:58:03.809Z,5.55
2019-05-09T01:58:36.267Z,5.57
2019-05-09T01:59:03.822Z,5.57
2019-05-09T01:59:34.181Z,5.54
2019-05-09T02:00:04.197Z,5.58
2019-05-09T02:00:33.750Z,5.57
2019-05-09T02:01:03.809Z,5.61
2019-05-09T02:01:34.392Z,5.62
2019-05-09T02:02:08.055Z,5.65
2019-05-09T02:02:33.922Z,5.63
2019-05-09T02:03:03.793Z,5.63
2019-05-09T02:03:33.909Z,5.65
2019-05-09T02:04:04.244Z,5.69
2019-05-09T02:04:33.954Z,5.69
2019-05-09T02:05:06.140Z,5.68
2019-05-09T02:05:34.097Z,5.69
2019-05-09T02:06:03.839Z,5.68
2019-05-09T02:06:33.745Z,5.69
2019-05-09T02:07:04.322Z,5.66
2019-05-09T02:07:33.740Z,5.69
2019-05-09T02:08:03.805Z,5.66
2019-05-09T02:08:34.385Z,5.68
2019-05-09T02:09:06.118Z,5.72
2019-05-09T02:09:34.362Z,5.70
2019-05-09T02:10:03.803Z,5.70
2019-05-09T02:10:34.675Z,5.72
2019-05-09T02:11:04.047Z,5.73
2019-05-09T02:11:42.219Z,5.72
2019-05-09T02:12:04.270Z,5.73
2019-05-09T02:12:33.937Z,5.73
2019-05-09T02:13:03.798Z,5.75
2019-05-09T02:13:34.038Z,5.76
2019-05-09T02:14:04.184Z,5.76
2019-05-09T02:14:34.340Z,5.73
2019-05-09T02:15:04.036Z,5.76
2019-05-09T02:15:36.107Z,5.75
2019-05-09T02:16:03.803Z,5.76
2019-05-09T02:16:33.903Z,5.78
2019-05-09T02:17:03.915Z,5.79
2019-05-09T02:17:33.741Z,5.80
2019-05-09T02:18:05.180Z,5.84
2019-05-09T02:18:33.746Z,5.82
2019-05-09T02:19:04.077Z,5.82
2019-05-09T02:19:36.129Z,5.84
2019-05-09T02:20:04.031Z,5.85
2019-05-09T02:20:33.764Z,5.86
2019-05-09T02:21:04.104Z,5.89
2019-05-09T02:21:34.468Z,5.90
2019-05-09T02:22:03.809Z,5.95
2019-05-09T02:22:34.632Z,5.96
2019-05-09T02:23:03.839Z,6.02
2019-05-09T02:23:33.985Z,6.00
2019-05-09T02:24:03.805Z,6.06
2019-05-09T02:24:33.909Z,6.06
2019-05-09T02:25:04.323Z,6.07
2019-05-09T02:25:33.745Z,6.09
2019-05-09T02:26:06.178Z,6.10
2019-05-09T02:26:33.749Z,6.10
2019-05-09T02:27:04.035Z,6.10
2019-05-09T02:27:33.749Z,6.09
2019-05-09T02:28:03.803Z,6.09
2019-05-09T02:28:34.190Z,6.12
2019-05-09T02:29:03.801Z,6.10
2019-05-09T02:29:33.895Z,6.10
2019-05-09T02:30:06.215Z,6.09
2019-05-09T02:30:35.959Z,6.10
2019-05-09T02:31:05.121Z,6.13
2019-05-09T02:31:35.297Z,6.09
2019-05-09T02:32:04.758Z,6.12
2019-05-09T02:32:34.657Z,6.14
2019-05-09T02:33:05.044Z,6.18
2019-05-09T02:33:34.612Z,6.18
2019-05-09T02:34:04.834Z,6.23
2019-05-09T02:34:35.548Z,6.24
2019-05-09T02:35:04.793Z,6.28
2019-05-09T02:35:41.315Z,6.30
2019-05-09T02:36:03.800Z,6.34
2019-05-09T02:36:38.464Z,6.34
2019-05-09T02:37:03.847Z,6.34
2019-05-09T02:37:33.875Z,6.33
2019-05-09T02:38:03.805Z,6.36
2019-05-09T02:38:33.746Z,6.36
2019-05-09T02:39:03.804Z,6.36
2019-05-09T02:39:33.762Z,6.37
2019-05-09T02:40:03.813Z,6.37
2019-05-09T02:40:38.985Z,6.37
2019-05-09T02:41:03.812Z,6.34
2019-05-09T02:41:33.747Z,6.37
2019-05-09T02:42:09.038Z,6.34
2019-05-09T02:42:33.752Z,6.36
2019-05-09T02:43:03.814Z,6.31
2019-05-09T02:43:33.752Z,6.33
2019-05-09T02:44:03.815Z,6.34
2019-05-09T02:44:33.758Z,6.33
2019-05-09T02:45:03.809Z,6.37
2019-05-09T02:45:33.760Z,6.37
2019-05-09T02:46:03.814Z,6.34
2019-05-09T02:46:33.754Z,6.38
2019-05-09T02:47:08.573Z,6.45
2019-05-09T02:47:33.842Z,6.49
2019-05-09T02:48:03.808Z,6.54
2019-05-09T02:48:33.755Z,6.58
2019-05-09T02:49:03.809Z,6.60
2019-05-09T02:49:33.788Z,6.61
2019-05-09T02:50:03.817Z,6.62
2019-05-09T02:50:33.748Z,6.67
2019-05-09T02:51:08.799Z,6.65
2019-05-09T02:51:33.756Z,6.68
2019-05-09T02:52:03.813Z,6.69
2019-05-09T02:52:33.802Z,6.69
2019-05-09T02:53:03.819Z,6.78
2019-05-09T02:53:33.753Z,6.85
2019-05-09T02:54:03.808Z,6.93
2019-05-09T02:54:33.754Z,6.93
2019-05-09T02:55:03.818Z,6.95
2019-05-09T02:55:33.755Z,6.95
2019-05-09T02:56:03.805Z,6.95
2019-05-09T02:56:33.756Z,6.96
2019-05-09T02:57:03.811Z,6.98
2019-05-09T02:57:37.499Z,6.98
2019-05-09T02:58:03.834Z,6.96
2019-05-09T02:58:33.756Z,6.96
2019-05-09T02:59:03.811Z,6.95
2019-05-09T02:59:33.754Z,6.96
2019-05-09T03:00:03.856Z,6.95
2019-05-09T03:00:33.754Z,7.00
2019-05-09T03:01:03.813Z,7.02
2019-05-09T03:01:39.019Z,7.02
2019-05-09T03:02:03.870Z,7.03
2019-05-09T03:02:33.756Z,7.03
2019-05-09T03:03:03.841Z,7.00
2019-05-09T03:03:33.750Z,7.06
2019-05-09T03:04:03.822Z,7.10
2019-05-09T03:04:33.747Z,7.12
2019-05-09T03:05:03.816Z,7.12
2019-05-09T03:05:33.751Z,7.10
2019-05-09T03:06:03.812Z,7.09
2019-05-09T03:06:33.759Z,7.12
2019-05-09T03:07:03.809Z,7.13
2019-05-09T03:07:33.758Z,7.13
2019-05-09T03:08:08.838Z,7.14
2019-05-09T03:08:33.752Z,7.17
2019-05-09T03:09:03.817Z,7.19
2019-05-09T03:09:33.760Z,7.19
2019-05-09T03:10:03.819Z,7.20
2019-05-09T03:10:33.752Z,7.20
2019-05-09T03:11:03.814Z,7.21
2019-05-09T03:11:33.755Z,7.20
2019-05-09T03:12:22.390Z,7.17
2019-05-09T03:12:35.675Z,7.19
2019-05-09T03:13:03.824Z,7.19
2019-05-09T03:13:33.783Z,7.17
2019-05-09T03:14:03.822Z,7.17
2019-05-09T03:14:33.868Z,7.16
2019-05-09T03:15:03.813Z,7.17
2019-05-09T03:15:33.749Z,7.16
2019-05-09T03:16:03.821Z,7.16
2019-05-09T03:16:33.844Z,7.16
2019-05-09T03:17:03.812Z,7.20
2019-05-09T03:17:33.754Z,7.20
2019-05-09T03:18:03.822Z,7.23
2019-05-09T03:18:38.583Z,7.24
2019-05-09T03:19:03.834Z,7.24
2019-05-09T03:19:33.754Z,7.24
2019-05-09T03:20:03.814Z,7.27
2019-05-09T03:20:33.760Z,7.29
2019-05-09T03:21:03.822Z,7.30
2019-05-09T03:21:33.757Z,7.34
2019-05-09T03:22:03.819Z,7.31
2019-05-09T03:22:39.082Z,7.30
2019-05-09T03:23:03.847Z,7.27
2019-05-09T03:23:33.758Z,7.21
2019-05-09T03:24:03.857Z,7.19
2019-05-09T03:24:33.762Z,7.19
2019-05-09T03:25:03.822Z,7.16
2019-05-09T03:25:33.760Z,7.14
2019-05-09T03:26:03.814Z,7.06
2019-05-09T03:26:33.760Z,7.04
2019-05-09T03:27:03.814Z,7.02
2019-05-09T03:27:33.761Z,7.00
2019-05-09T03:28:03.815Z,6.93
2019-05-09T03:28:33.766Z,6.92
2019-05-09T03:29:08.651Z,6.88
2019-05-09T03:29:33.763Z,6.86
2019-05-09T03:30:03.815Z,6.82
2019-05-09T03:30:33.757Z,6.82
2019-05-09T03:31:03.829Z,6.75
2019-05-09T03:31:33.763Z,6.74
2019-05-09T03:32:03.833Z,6.69
2019-05-09T03:32:33.762Z,6.68
2019-05-09T03:33:09.789Z,6.61
2019-05-09T03:33:35.625Z,6.56
2019-05-09T03:34:03.828Z,6.55
2019-05-09T03:34:33.818Z,6.54
2019-05-09T03:35:03.817Z,6.51
2019-05-09T03:35:33.757Z,6.51
2019-05-09T03:36:03.817Z,6.48
2019-05-09T03:36:33.756Z,6.49
2019-05-09T03:37:03.814Z,6.47
2019-05-09T03:37:33.757Z,6.45
2019-05-09T03:38:03.818Z,6.44
2019-05-09T03:38:33.758Z,6.41
2019-05-09T03:39:03.823Z,6.37
2019-05-09T03:39:37.697Z,6.36
2019-05-09T03:40:03.828Z,6.34
2019-05-09T03:40:33.760Z,6.33
2019-05-09T03:41:03.822Z,6.30
2019-05-09T03:41:33.801Z,6.28
2019-05-09T03:42:03.832Z,6.27
2019-05-09T03:42:40.887Z,6.26
2019-05-09T03:43:03.835Z,6.26
2019-05-09T03:43:37.691Z,6.23
2019-05-09T03:44:03.820Z,6.23
2019-05-09T03:44:33.770Z,6.23
2019-05-09T03:45:03.893Z,6.24
2019-05-09T03:45:33.772Z,6.20
2019-05-09T03:46:03.817Z,6.21
2019-05-09T03:46:33.764Z,6.24
2019-05-09T03:47:03.831Z,6.27
2019-05-09T03:47:33.766Z,6.24
2019-05-09T03:48:03.875Z,6.23
2019-05-09T03:48:33.759Z,6.27
2019-05-09T03:49:03.827Z,6.24
2019-05-09T03:49:33.765Z,6.26
2019-05-09T03:50:08.145Z,6.24
2019-05-09T03:50:33.760Z,6.26
2019-05-09T03:51:03.824Z,6.24
2019-05-09T03:51:33.765Z,6.24
2019-05-09T03:52:03.823Z,6.21
2019-05-09T03:52:33.763Z,6.23
2019-05-09T03:53:03.826Z,6.21
2019-05-09T03:53:33.765Z,6.20
2019-05-09T03:54:07.954Z,6.23
2019-05-09T03:54:33.770Z,6.26
2019-05-09T03:55:03.825Z,6.30
2019-05-09T03:55:33.800Z,6.36
2019-05-09T03:56:03.864Z,6.40
2019-05-09T03:56:33.760Z,6.44
2019-05-09T03:57:03.821Z,6.44
2019-05-09T03:57:33.778Z,6.48
2019-05-09T03:58:03.819Z,6.47
2019-05-09T03:58:33.767Z,6.49
2019-05-09T03:59:03.823Z,6.52
2019-05-09T03:59:33.760Z,6.49
2019-05-09T04:00:03.834Z,6.51
2019-05-09T04:00:37.540Z,6.55
2019-05-09T04:01:03.836Z,6.56
2019-05-09T04:01:33.782Z,6.56
2019-05-09T04:02:03.821Z,6.62
2019-05-09T04:02:33.771Z,6.64
2019-05-09T04:03:03.823Z,6.67
2019-05-09T04:03:33.764Z,6.74
2019-05-09T04:04:03.828Z,6.74
2019-05-09T04:04:38.157Z,6.75
2019-05-09T04:05:03.831Z,6.76
2019-05-09T04:05:33.770Z,6.78
2019-05-09T04:06:03.866Z,6.79
2019-05-09T04:06:33.822Z,6.82
2019-05-09T04:07:03.826Z,6.82
2019-05-09T04:07:33.766Z,6.86
2019-05-09T04:08:03.825Z,6.89
2019-05-09T04:08:33.764Z,6.89
2019-05-09T04:09:03.818Z,6.96
2019-05-09T04:09:33.773Z,6.99
2019-05-09T04:10:03.825Z,7.04
2019-05-09T04:10:33.842Z,7.12
2019-05-09T04:11:08.293Z,7.17
2019-05-09T04:11:33.769Z,7.24
2019-05-09T04:12:03.936Z,7.29
2019-05-09T04:12:33.827Z,7.34
2019-05-09T04:13:03.825Z,7.41
2019-05-09T04:13:33.764Z,7.50
2019-05-09T04:14:03.826Z,7.57
2019-05-09T04:14:33.775Z,7.61
2019-05-09T04:15:08.166Z,7.68
2019-05-09T04:15:33.877Z,7.74
2019-05-09T04:16:03.825Z,7.81
2019-05-09T04:16:33.810Z,7.88
2019-05-09T04:17:03.830Z,7.92
2019-05-09T04:17:33.772Z,7.99
2019-05-09T04:18:03.827Z,8.06
2019-05-09T04:18:33.764Z,8.12
2019-05-09T04:19:03.884Z,8.16
2019-05-09T04:19:34.785Z,8.22
2019-05-09T04:20:03.837Z,8.29
2019-05-09T04:20:33.777Z,8.36
2019-05-09T04:21:03.984Z,8.37
2019-05-09T04:21:38.080Z,8.45
2019-05-09T04:22:03.835Z,8.53
2019-05-09T04:22:33.784Z,8.61
2019-05-09T04:23:03.827Z,8.64
2019-05-09T04:23:33.770Z,8.72
2019-05-09T04:24:03.828Z,8.71
2019-05-09T04:24:33.764Z,8.76
2019-05-09T04:25:03.831Z,8.78
2019-05-09T04:25:37.638Z,8.81
2019-05-09T04:26:03.828Z,8.83
2019-05-09T04:26:33.774Z,8.86
2019-05-09T04:27:03.866Z,8.88
2019-05-09T04:27:33.777Z,8.89
2019-05-09T04:28:03.831Z,8.88
2019-05-09T04:28:33.775Z,8.91
2019-05-09T04:29:03.950Z,8.89
2019-05-09T04:29:33.775Z,8.88
2019-05-09T04:30:06.329Z,8.83
2019-05-09T04:30:33.778Z,8.75
2019-05-09T04:31:03.833Z,8.74
2019-05-09T04:31:33.874Z,8.68
2019-05-09T04:32:07.876Z,8.63
2019-05-09T04:32:33.768Z,8.63
2019-05-09T04:33:03.826Z,8.64
2019-05-09T04:33:33.921Z,8.61
2019-05-09T04:34:03.830Z,8.60
2019-05-09T04:34:33.779Z,8.65
2019-05-09T04:35:04.068Z,8.69
2019-05-09T04:35:33.785Z,8.75
2019-05-09T04:36:08.104Z,8.82
2019-05-09T04:36:33.775Z,8.85
2019-05-09T04:37:03.837Z,8.89
2019-05-09T04:37:33.831Z,8.86
2019-05-09T04:38:03.825Z,8.86
2019-05-09T04:38:33.769Z,8.86
2019-05-09T04:39:03.835Z,8.83
2019-05-09T04:39:33.771Z,8.83
2019-05-09T04:40:03.825Z,8.83
2019-05-09T04:40:37.548Z,8.86
2019-05-09T04:41:03.841Z,8.89
2019-05-09T04:41:33.775Z,8.96
2019-05-09T04:42:05.606Z,9.06
2019-05-09T04:42:42.450Z,9.15
2019-05-09T04:43:11.796Z,9.25
2019-05-09T04:43:36.498Z,9.29
2019-05-09T04:44:04.938Z,9.36
2019-05-09T04:44:33.781Z,9.41
2019-05-09T04:45:05.776Z,9.44
2019-05-09T04:45:38.527Z,9.50
2019-05-09T04:46:03.878Z,9.50
2019-05-09T04:46:37.748Z,9.57
2019-05-09T04:47:04.063Z,9.62
2019-05-09T04:47:38.191Z,9.70
2019-05-09T04:48:03.836Z,9.75
2019-05-09T04:48:33.769Z,9.81
2019-05-09T04:49:03.840Z,9.84
2019-05-09T04:49:39.166Z,9.85
2019-05-09T04:50:03.944Z,9.91
2019-05-09T04:50:33.779Z,9.96
2019-05-09T04:51:03.838Z,10.05
2019-05-09T04:51:33.775Z,10.12
2019-05-09T04:52:03.837Z,10.19
2019-05-09T04:52:33.771Z,10.27
2019-05-09T04:53:07.891Z,10.34
2019-05-09T04:53:33.770Z,10.37
2019-05-09T04:54:03.842Z,10.39
2019-05-09T04:54:33.773Z,10.37
2019-05-09T04:55:03.833Z,10.34
2019-05-09T04:55:33.777Z,10.40
2019-05-09T04:56:03.832Z,10.46
2019-05-09T04:56:33.785Z,10.53
2019-05-09T04:57:07.612Z,10.60
2019-05-09T04:57:33.776Z,10.67
2019-05-09T04:58:03.834Z,10.74
2019-05-09T04:58:33.832Z,10.78
2019-05-09T04:59:03.844Z,10.87
2019-05-09T04:59:33.777Z,10.94
2019-05-09T05:00:03.851Z,11.03
2019-05-09T05:00:33.873Z,11.14
2019-05-09T05:01:03.839Z,11.23
2019-05-09T05:01:33.785Z,11.30
2019-05-09T05:02:03.835Z,11.35
2019-05-09T05:02:33.776Z,11.36
2019-05-09T05:03:03.847Z,11.28
2019-05-09T05:03:37.569Z,11.19
2019-05-09T05:04:03.836Z,11.14
2019-05-09T05:04:33.774Z,11.08
2019-05-09T05:05:03.834Z,11.05
2019-05-09T05:05:33.781Z,11.03
2019-05-09T05:06:03.838Z,11.01
2019-05-09T05:06:33.783Z,11.02
2019-05-09T05:07:03.893Z,11.05
2019-05-09T05:07:37.586Z,11.14
2019-05-09T05:08:03.851Z,11.21
2019-05-09T05:08:33.777Z,11.26
2019-05-09T05:09:03.955Z,11.30
2019-05-09T05:09:33.780Z,11.35
2019-05-09T05:10:03.854Z,11.36
2019-05-09T05:10:33.786Z,11.39
2019-05-09T05:11:04.013Z,11.40
2019-05-09T05:11:33.778Z,11.40
2019-05-09T05:12:03.833Z,11.42
2019-05-09T05:12:33.783Z,11.39
2019-05-09T05:13:03.841Z,11.30
2019-05-09T05:13:33.781Z,11.19
2019-05-09T05:14:07.360Z,11.09
2019-05-09T05:14:33.777Z,11.03
2019-05-09T05:15:03.842Z,10.96
2019-05-09T05:15:33.784Z,10.90
2019-05-09T05:16:03.841Z,10.84
2019-05-09T05:16:33.812Z,10.70
2019-05-09T05:17:08.307Z,10.61
2019-05-09T05:17:33.780Z,10.49
2019-05-09T05:18:08.021Z,10.42
2019-05-09T05:18:33.789Z,10.34
2019-05-09T05:19:03.839Z,10.29
2019-05-09T05:19:36.128Z,10.26
2019-05-09T05:20:03.844Z,10.22
2019-05-09T05:20:33.777Z,10.20
2019-05-09T05:21:03.850Z,10.15
2019-05-09T05:21:33.780Z,10.16
2019-05-09T05:22:03.846Z,10.10
2019-05-09T05:22:33.789Z,10.05
2019-05-09T05:23:03.843Z,10.01
2019-05-09T05:23:33.880Z,9.99
2019-05-09T05:24:03.846Z,9.94
2019-05-09T05:24:38.141Z,9.92
2019-05-09T05:25:03.842Z,9.91
2019-05-09T05:25:33.855Z,9.87
2019-05-09T05:26:03.853Z,9.88
2019-05-09T05:26:33.782Z,9.82
2019-05-09T05:27:03.846Z,9.81
2019-05-09T05:27:33.874Z,9.75
2019-05-09T05:28:03.842Z,9.71
2019-05-09T05:28:37.953Z,9.73
2019-05-09T05:29:03.848Z,9.68
2019-05-09T05:29:33.785Z,9.70
2019-05-09T05:30:03.895Z,9.64
2019-05-09T05:30:33.795Z,9.61
2019-05-09T05:31:03.845Z,9.61
2019-05-09T05:31:33.792Z,9.55
2019-05-09T05:32:04.025Z,9.54
2019-05-09T05:32:33.785Z,9.57
2019-05-09T05:33:03.843Z,9.54
2019-05-09T05:33:33.782Z,9.54
2019-05-09T05:34:03.845Z,9.53
2019-05-09T05:34:33.796Z,9.60
2019-05-09T05:35:07.485Z,9.64
2019-05-09T05:35:33.781Z,9.65
2019-05-09T05:36:03.883Z,9.68
2019-05-09T05:36:33.785Z,9.64
2019-05-09T05:37:03.842Z,9.64
2019-05-09T05:37:33.781Z,9.61
2019-05-09T05:38:03.891Z,9.58
2019-05-09T05:38:33.787Z,9.58
2019-05-09T05:39:07.373Z,9.57
2019-05-09T05:39:33.787Z,9.55
2019-05-09T05:40:03.847Z,9.54
2019-05-09T05:40:34.069Z,9.55
2019-05-09T05:41:03.855Z,9.58
2019-05-09T05:41:33.783Z,9.61
2019-05-09T05:42:03.857Z,9.65
2019-05-09T05:42:33.791Z,9.68
2019-05-09T05:43:03.855Z,9.70
2019-05-09T05:43:41.378Z,9.74
2019-05-09T05:44:03.847Z,9.78
2019-05-09T05:44:33.787Z,9.84
2019-05-09T05:45:03.843Z,9.91
2019-05-09T05:45:37.474Z,10.04
2019-05-09T05:46:03.852Z,10.19
2019-05-09T05:46:33.786Z,10.34
2019-05-09T05:47:03.856Z,10.50
2019-05-09T05:47:33.793Z,10.64
2019-05-09T05:48:03.853Z,10.70
2019-05-09T05:48:33.896Z,10.77
2019-05-09T05:49:38.223Z,10.91
2019-05-09T05:50:03.847Z,11.02
2019-05-09T05:50:33.791Z,11.15
2019-05-09T05:51:03.884Z,11.25
2019-05-09T05:51:33.787Z,11.33
2019-05-09T05:52:03.851Z,11.49
2019-05-09T05:52:33.787Z,11.58
2019-05-09T05:53:03.956Z,11.66
2019-05-09T05:53:33.796Z,11.73
2019-05-09T05:54:03.854Z,11.76
2019-05-09T05:54:33.826Z,11.77
2019-05-09T05:55:03.857Z,11.76
2019-05-09T05:55:33.787Z,11.70
2019-05-09T05:56:08.453Z,11.64
2019-05-09T05:56:33.788Z,11.61
2019-05-09T05:57:03.846Z,11.58
2019-05-09T05:57:33.791Z,11.47
2019-05-09T05:58:03.853Z,11.39
2019-05-09T05:58:33.799Z,11.23
2019-05-09T05:59:03.858Z,11.12
2019-05-09T05:59:37.124Z,11.02
2019-05-09T06:00:07.816Z,10.98
2019-05-09T06:00:33.786Z,10.94
2019-05-09T06:01:04.686Z,10.91
2019-05-09T06:01:33.793Z,10.87
2019-05-09T06:02:03.884Z,10.72
2019-05-09T06:02:33.787Z,10.64
2019-05-09T06:03:03.853Z,10.54
2019-05-09T06:03:33.791Z,10.54
2019-05-09T06:04:03.851Z,10.57
2019-05-09T06:04:33.798Z,10.60
2019-05-09T06:05:03.858Z,10.65
2019-05-09T06:05:33.792Z,10.72
2019-05-09T06:06:03.848Z,10.81
2019-05-09T06:06:37.455Z,10.88
2019-05-09T06:07:03.847Z,10.99
2019-05-09T06:07:33.802Z,11.09
2019-05-09T06:08:03.870Z,11.17
2019-05-09T06:08:33.789Z,11.19
2019-05-09T06:09:03.857Z,11.17
2019-05-09T06:09:33.797Z,11.15
2019-05-09T06:10:03.853Z,11.07
2019-05-09T06:10:37.747Z,10.98
2019-05-09T06:11:03.852Z,10.92
2019-05-09T06:11:33.797Z,10.92
2019-05-09T06:12:03.879Z,10.95
2019-05-09T06:12:33.796Z,10.98
2019-05-09T06:13:03.856Z,10.99
2019-05-09T06:13:33.790Z,11.03
2019-05-09T06:14:08.261Z,11.12
2019-05-09T06:14:33.788Z,11.25
2019-05-09T06:15:03.856Z,11.36
2019-05-09T06:15:33.896Z,11.49
2019-05-09T06:16:03.856Z,11.66
2019-05-09T06:16:33.797Z,11.83
2019-05-09T06:17:07.766Z,11.98
2019-05-09T06:17:33.803Z,12.04
2019-05-09T06:18:03.852Z,12.09
2019-05-09T06:18:33.806Z,12.14
2019-05-09T06:19:03.859Z,12.16
2019-05-09T06:19:33.830Z,12.22
2019-05-09T06:20:03.854Z,12.26
2019-05-09T06:20:33.800Z,12.31
2019-05-09T06:21:08.230Z,12.33
2019-05-09T06:21:33.800Z,12.39
2019-05-09T06:22:03.849Z,12.40
2019-05-09T06:22:33.814Z,12.32
2019-05-09T06:23:03.859Z,12.19
2019-05-09T06:23:33.794Z,12.08
2019-05-09T06:24:04.007Z,12.01
2019-05-09T06:24:33.798Z,12.00
2019-05-09T06:25:03.866Z,11.98
2019-05-09T06:25:33.801Z,12.01
2019-05-09T06:26:03.859Z,12.05
2019-05-09T06:26:33.792Z,12.15
2019-05-09T06:27:06.839Z,12.22
2019-05-09T06:27:37.543Z,12.28
2019-05-09T06:28:03.857Z,12.33
2019-05-09T06:28:33.798Z,12.42
2019-05-09T06:29:03.849Z,12.46
2019-05-09T06:29:33.799Z,12.42
2019-05-09T06:30:03.914Z,12.37
2019-05-09T06:30:33.872Z,12.25
2019-05-09T06:31:03.855Z,12.19
2019-05-09T06:31:37.592Z,12.15
2019-05-09T06:32:03.857Z,12.11
2019-05-09T06:32:33.802Z,12.11
2019-05-09T06:33:05.030Z,12.09
2019-05-09T06:33:33.797Z,12.04
2019-05-09T06:34:03.891Z,11.94
2019-05-09T06:34:33.802Z,11.84
2019-05-09T06:35:03.967Z,11.70
2019-05-09T06:35:33.809Z,11.57
2019-05-09T06:36:03.866Z,11.45
2019-05-09T06:36:33.807Z,11.35